Time;durP1;ratioP1;P1;durP2;ratioP2;P2;SDS_P1;SDS_P2;PMS_P1;PMS_P2;Temp;Humidity;BMP_temperature;BMP_pressure;BME280_temperature;BME280_humidity;BME280_pressure;Samples;Min_cycle;Max_cycle;Signal;HPM_P1;HPM_P2
2023/07/01 00:01:11;;;;;;;;;;;23.30;99.90;;;;;;4591861;19;20226;-24
2023/07/01 00:02:54;;;;;;;;;;;23.20;99.90;;;;;;4591381;19;19929;-25
2023/07/01 00:04:25;;;;;;;;;;;23.20;99.90;;;;;;4591531;19;19927;-24
2023/07/01 00:06:01;;;;;;;;;;;23.20;99.90;;;;;;4590734;19;19931;-24
2023/07/01 00:07:32;;;;;;;;;;;23.20;99.90;;;;;;4590582;19;19915;-27
2023/07/01 00:09:03;;;;;;;;;;;23.20;99.90;;;;;;4590576;19;20311;-23
2023/07/01 00:10:34;;;;;;;;;;;23.20;99.90;;;;;;4590226;19;19919;-24
2023/07/01 00:12:05;;;;;;;;;;;23.20;99.90;;;;;;4591083;19;19911;-24
2023/07/01 00:13:36;;;;;;;;;;;23.20;99.90;;;;;;4590240;19;20264;-22
2023/07/01 00:15:07;;;;;;;;;;;23.20;99.90;;;;;;4590673;19;19925;-24
2023/07/01 00:16:39;;;;;;;;;;;23.20;99.90;;;;;;4590267;19;19978;-24
2023/07/01 00:18:10;;;;;;;;;;;23.20;99.90;;;;;;4590543;19;19922;-27
2023/07/01 00:19:43;;;;;;;;;;;23.30;99.90;;;;;;4588660;19;19919;-25
2023/07/01 00:21:14;;;;;;;;;;;23.20;99.90;;;;;;4590329;19;20339;-24
2023/07/01 00:22:45;;;;;;;;;;;23.20;99.90;;;;;;4591114;19;19919;-28
2023/07/01 00:24:16;;;;;;;;;;;23.30;99.90;;;;;;4590016;19;19923;-25
2023/07/01 00:25:47;;;;;;;;;;;23.20;99.90;;;;;;4590120;19;19927;-24
2023/07/01 00:27:18;;;;;;;;;;;23.20;99.90;;;;;;4589123;19;19915;-24
2023/07/01 00:28:49;;;;;;;;;;;23.20;99.90;;;;;;4590889;19;20285;-26
2023/07/01 00:30:20;;;;;;;;;;;23.20;99.90;;;;;;4590582;19;20297;-28
2023/07/01 00:31:57;;;;;;;;;;;23.20;99.90;;;;;;4590718;19;19921;-26
2023/07/01 00:33:28;;;;;;;;;;;23.20;99.90;;;;;;4591043;19;20318;-24
2023/07/01 00:34:59;;;;;;;;;;;23.20;99.90;;;;;;4591274;19;19938;-24
2023/07/01 00:36:31;;;;;;;;;;;23.20;99.90;;;;;;4591472;19;19949;-24
2023/07/01 00:38:03;;;;;;;;;;;23.20;99.90;;;;;;4590257;19;19914;-25
2023/07/01 00:39:35;;;;;;;;;;;23.20;99.90;;;;;;4591050;19;20325;-27
2023/07/01 00:41:07;;;;;;;;;;;23.20;99.90;;;;;;4589740;19;19915;-24
2023/07/01 00:42:39;;;;;;;;;;;23.20;99.90;;;;;;4590161;19;19929;-27
2023/07/01 00:44:11;;;;;;;;;;;23.20;99.90;;;;;;4590239;19;19915;-27
2023/07/01 00:45:42;;;;;;;;;;;23.20;99.90;;;;;;4590987;19;19926;-24
2023/07/01 00:47:14;;;;;;;;;;;23.10;99.90;;;;;;4588163;19;19922;-26
2023/07/01 00:48:46;;;;;;;;;;;23.10;99.90;;;;;;4589040;19;20289;-26
2023/07/01 00:50:17;;;;;;;;;;;23.10;99.90;;;;;;4588623;19;19910;-24
2023/07/01 00:51:49;;;;;;;;;;;23.20;99.90;;;;;;4588658;19;19925;-24
2023/07/01 00:53:20;;;;;;;;;;;23.10;99.90;;;;;;4589017;19;19911;-24
2023/07/01 00:54:51;;;;;;;;;;;23.20;99.90;;;;;;4588182;19;20088;-28
2023/07/01 00:56:22;;;;;;;;;;;23.20;99.90;;;;;;4588591;19;20344;-26
2023/07/01 00:57:53;;;;;;;;;;;23.20;99.90;;;;;;4588038;19;19923;-24
2023/07/01 00:59:27;;;;;;;;;;;23.20;99.90;;;;;;4589087;19;19910;-24
2023/07/01 01:01:00;;;;;;;;;;;23.10;99.90;;;;;;4588292;19;19921;-23
2023/07/01 01:02:35;;;;;;;;;;;23.10;99.90;;;;;;4588143;19;19911;-24
2023/07/01 01:04:38;;;;;;;;;;;23.10;99.90;;;;;;4588619;19;19919;-24
2023/07/01 01:06:20;;;;;;;;;;;23.10;99.90;;;;;;4588515;19;19911;-24
2023/07/01 01:07:51;;;;;;;;;;;23.20;99.90;;;;;;4588495;19;19953;-24
2023/07/01 01:09:29;;;;;;;;;;;23.20;99.90;;;;;;4588685;19;19919;-24
2023/07/01 01:11:00;;;;;;;;;;;23.20;99.90;;;;;;4593001;19;19918;-26
2023/07/01 01:12:32;;;;;;;;;;;23.10;99.90;;;;;;4592784;19;19915;-27
2023/07/01 01:14:05;;;;;;;;;;;23.20;99.90;;;;;;4593103;19;19919;-29
2023/07/01 01:15:36;;;;;;;;;;;23.10;99.90;;;;;;4592526;19;19915;-27
2023/07/01 01:17:09;;;;;;;;;;;23.10;99.90;;;;;;4592482;19;19921;-24
2023/07/01 01:18:42;;;;;;;;;;;23.20;99.90;;;;;;4591557;19;19966;-24
2023/07/01 01:20:16;;;;;;;;;;;23.10;99.90;;;;;;4592763;19;20323;-28
2023/07/01 01:21:49;;;;;;;;;;;23.10;99.90;;;;;;4592509;19;19948;-24
2023/07/01 01:23:26;;;;;;;;;;;23.10;99.90;;;;;;4592163;19;19929;-25
2023/07/01 01:24:58;;;;;;;;;;;23.10;99.90;;;;;;4591842;19;19922;-24
2023/07/01 01:26:32;;;;;;;;;;;23.10;99.90;;;;;;4592631;19;19945;-27
2023/07/01 01:28:03;;;;;;;;;;;23.10;99.90;;;;;;4592301;19;19921;-27
2023/07/01 01:29:34;;;;;;;;;;;23.10;99.90;;;;;;4592280;19;19938;-24
2023/07/01 01:31:05;;;;;;;;;;;23.10;99.90;;;;;;4592600;19;19919;-22
2023/07/01 01:32:36;;;;;;;;;;;23.10;99.90;;;;;;4592291;19;19918;-23
2023/07/01 01:34:07;;;;;;;;;;;23.10;99.90;;;;;;4592054;19;19929;-31
2023/07/01 01:35:38;;;;;;;;;;;23.10;99.90;;;;;;4592292;19;20391;-24
2023/07/01 01:37:19;;;;;;;;;;;23.10;99.90;;;;;;4592559;19;19918;-24
2023/07/01 01:38:51;;;;;;;;;;;23.10;99.90;;;;;;4591170;19;19922;-27
2023/07/01 01:40:31;;;;;;;;;;;23.10;99.90;;;;;;4591994;19;19991;-23
2023/07/01 01:42:08;;;;;;;;;;;23.10;99.90;;;;;;4592253;19;19918;-27
2023/07/01 01:43:39;;;;;;;;;;;23.10;99.90;;;;;;4592652;19;19929;-24
2023/07/01 01:45:11;;;;;;;;;;;23.10;99.90;;;;;;4592543;19;19919;-27
2023/07/01 01:46:43;;;;;;;;;;;23.10;99.90;;;;;;4592269;19;20349;-24
2023/07/01 01:48:14;;;;;;;;;;;23.10;99.90;;;;;;4592402;19;20376;-24
2023/07/01 01:49:46;;;;;;;;;;;23.00;99.90;;;;;;4591771;19;19911;-23
2023/07/01 01:51:17;;;;;;;;;;;23.10;99.90;;;;;;4592452;19;19915;-24
2023/07/01 01:52:49;;;;;;;;;;;23.10;99.90;;;;;;4591891;19;19918;-22
2023/07/01 01:54:20;;;;;;;;;;;23.10;99.90;;;;;;4592087;19;19914;-29
2023/07/01 01:55:51;;;;;;;;;;;23.10;99.90;;;;;;4593653;19;20250;-28
2023/07/01 01:57:22;;;;;;;;;;;23.10;99.90;;;;;;4593685;19;19942;-24
2023/07/01 01:58:53;;;;;;;;;;;23.00;99.90;;;;;;4591674;19;19919;-25
2023/07/01 02:00:25;;;;;;;;;;;23.10;99.90;;;;;;4592893;19;19922;-28
2023/07/01 02:01:56;;;;;;;;;;;23.10;99.90;;;;;;4593288;19;20344;-24
2023/07/01 02:03:27;;;;;;;;;;;23.10;99.90;;;;;;4593544;19;20012;-26
2023/07/01 02:04:58;;;;;;;;;;;23.10;99.90;;;;;;4594336;19;20237;-23
2023/07/01 02:06:29;;;;;;;;;;;23.00;99.90;;;;;;4593102;19;19930;-24
2023/07/01 02:08:06;;;;;;;;;;;23.00;99.90;;;;;;4594130;19;19925;-24
2023/07/01 02:09:37;;;;;;;;;;;23.00;99.90;;;;;;4593834;19;19936;-24
2023/07/01 02:11:08;;;;;;;;;;;23.00;99.90;;;;;;4594119;19;20268;-29
2023/07/01 02:12:42;;;;;;;;;;;23.00;99.90;;;;;;4594494;19;19919;-24
2023/07/01 02:14:13;;;;;;;;;;;23.00;99.90;;;;;;4594225;19;19937;-28
2023/07/01 02:15:44;;;;;;;;;;;23.00;99.90;;;;;;4591169;19;19929;-27
2023/07/01 02:17:18;;;;;;;;;;;23.00;99.90;;;;;;4593079;19;20230;-24
2023/07/01 02:18:48;;;;;;;;;;;23.00;99.90;;;;;;4591857;19;19918;-28
2023/07/01 02:20:20;;;;;;;;;;;23.00;99.90;;;;;;4591945;19;19918;-28
2023/07/01 02:21:51;;;;;;;;;;;23.00;99.90;;;;;;4593222;19;20315;-24
2023/07/01 02:23:21;;;;;;;;;;;23.00;99.90;;;;;;4592434;19;19916;-24
2023/07/01 02:24:53;;;;;;;;;;;23.10;99.90;;;;;;4591873;19;19919;-26
2023/07/01 02:33:34;;;;;;;;;;;23.00;99.90;;;;;;4593057;19;19899;-27
2023/07/01 02:35:06;;;;;;;;;;;23.00;99.90;;;;;;4593786;19;20071;-28
2023/07/01 02:36:40;;;;;;;;;;;23.00;99.90;;;;;;4592107;19;19929;-26
2023/07/01 02:38:11;;;;;;;;;;;23.00;99.90;;;;;;4592247;19;19910;-24
2023/07/01 02:39:44;;;;;;;;;;;23.00;99.90;;;;;;4592613;19;20328;-24
2023/07/01 02:41:15;;;;;;;;;;;23.00;99.90;;;;;;4593048;19;19915;-26
2023/07/01 02:42:48;;;;;;;;;;;23.00;99.90;;;;;;4593133;19;19974;-29
2023/07/01 02:44:19;;;;;;;;;;;23.00;99.90;;;;;;4592457;19;19915;-21
2023/07/01 02:45:50;;;;;;;;;;;23.00;99.90;;;;;;4593080;19;19937;-26
2023/07/01 02:47:21;;;;;;;;;;;23.00;99.90;;;;;;4591662;19;19915;-28
2023/07/01 02:48:52;;;;;;;;;;;23.00;99.90;;;;;;4591956;19;19919;-24
2023/07/01 02:50:23;;;;;;;;;;;23.00;99.90;;;;;;4592422;19;19948;-27
2023/07/01 02:51:54;;;;;;;;;;;23.00;99.90;;;;;;4592534;19;20332;-24
2023/07/01 02:53:25;;;;;;;;;;;23.00;99.90;;;;;;4592476;19;19925;-24
2023/07/01 02:54:56;;;;;;;;;;;23.00;99.90;;;;;;4592073;19;20352;-24
2023/07/01 02:56:29;;;;;;;;;;;23.00;99.90;;;;;;4592771;19;19918;-26
2023/07/01 02:58:00;;;;;;;;;;;23.00;99.90;;;;;;4591749;19;19981;-26
2023/07/01 02:59:31;;;;;;;;;;;23.00;99.90;;;;;;4592440;19;19921;-24
2023/07/01 03:01:03;;;;;;;;;;;23.00;99.90;;;;;;4592765;19;19918;-27
2023/07/01 03:02:35;;;;;;;;;;;23.00;99.90;;;;;;4593188;19;19939;-28
2023/07/01 03:04:06;;;;;;;;;;;23.00;99.90;;;;;;4593195;19;20324;-24
2023/07/01 03:05:39;;;;;;;;;;;23.00;99.90;;;;;;4591587;19;20230;-25
2023/07/01 03:07:10;;;;;;;;;;;23.00;99.90;;;;;;4592594;19;19922;-24
2023/07/01 03:08:41;;;;;;;;;;;23.00;99.90;;;;;;4592184;19;19919;-26
2023/07/01 03:10:11;;;;;;;;;;;23.00;99.90;;;;;;4591852;19;19918;-28
2023/07/01 03:11:43;;;;;;;;;;;23.00;99.90;;;;;;4592738;19;20369;-23
2023/07/01 03:13:16;;;;;;;;;;;23.00;99.90;;;;;;4592986;19;19921;-24
2023/07/01 03:14:47;;;;;;;;;;;22.90;99.90;;;;;;4593314;19;19914;-29
2023/07/01 03:16:20;;;;;;;;;;;22.90;99.90;;;;;;4592941;19;19922;-24
2023/07/01 03:17:52;;;;;;;;;;;22.90;99.90;;;;;;4592409;19;19913;-28
2023/07/01 03:19:23;;;;;;;;;;;22.90;99.90;;;;;;4592817;19;19938;-22
2023/07/01 03:20:57;;;;;;;;;;;22.90;99.90;;;;;;4592653;19;19918;-30
2023/07/01 03:22:28;;;;;;;;;;;22.90;99.90;;;;;;4590947;19;20370;-27
2023/07/01 03:23:59;;;;;;;;;;;22.90;99.90;;;;;;4591707;19;19918;-23
2023/07/01 03:25:31;;;;;;;;;;;22.90;99.90;;;;;;4592048;19;19978;-27
2023/07/01 03:27:02;;;;;;;;;;;22.90;99.90;;;;;;4591564;19;19923;-27
2023/07/01 03:28:33;;;;;;;;;;;22.90;99.90;;;;;;4592204;19;19926;-23
2023/07/01 03:30:05;;;;;;;;;;;22.90;99.90;;;;;;4592347;19;20327;-26
2023/07/01 03:31:36;;;;;;;;;;;22.90;99.90;;;;;;4591349;19;19914;-24
2023/07/01 03:33:08;;;;;;;;;;;22.90;99.90;;;;;;4589547;19;19918;-24
2023/07/01 03:34:39;;;;;;;;;;;22.90;99.90;;;;;;4591765;19;19926;-22
2023/07/01 03:36:10;;;;;;;;;;;22.90;99.90;;;;;;4592707;19;19911;-24
2023/07/01 03:37:42;;;;;;;;;;;22.90;99.90;;;;;;4592444;19;19922;-21
2023/07/01 03:39:16;;;;;;;;;;;22.90;99.90;;;;;;4590794;19;19915;-22
2023/07/01 03:40:47;;;;;;;;;;;22.90;99.90;;;;;;4590922;19;19914;-23
2023/07/01 03:42:19;;;;;;;;;;;22.90;99.90;;;;;;4590727;19;19925;-24
2023/07/01 03:43:50;;;;;;;;;;;22.90;99.90;;;;;;4591954;19;20329;-22
2023/07/01 03:45:22;;;;;;;;;;;22.90;99.90;;;;;;4591580;19;19931;-27
2023/07/01 03:46:52;;;;;;;;;;;22.90;99.90;;;;;;4591005;19;20241;-24
2023/07/01 03:48:24;;;;;;;;;;;22.90;99.90;;;;;;4591929;19;19942;-24
2023/07/01 03:49:55;;;;;;;;;;;22.90;99.90;;;;;;4592329;19;19919;-24
2023/07/01 03:51:30;;;;;;;;;;;22.90;99.90;;;;;;4591444;19;19911;-24
2023/07/01 03:53:02;;;;;;;;;;;22.90;99.90;;;;;;4592078;19;20363;-24
2023/07/01 03:54:32;;;;;;;;;;;22.90;99.90;;;;;;4591311;19;19926;-25
2023/07/01 03:56:04;;;;;;;;;;;22.90;99.90;;;;;;4591210;19;19911;-24
2023/07/01 03:57:35;;;;;;;;;;;22.90;99.90;;;;;;4591034;19;20359;-24
2023/07/01 03:59:06;;;;;;;;;;;22.90;99.90;;;;;;4589629;19;19998;-24
2023/07/01 04:00:38;;;;;;;;;;;22.90;99.90;;;;;;4591580;19;19922;-26
2023/07/01 04:02:10;;;;;;;;;;;23.00;99.90;;;;;;4591485;19;19927;-23
2023/07/01 04:03:41;;;;;;;;;;;23.00;99.90;;;;;;4591714;19;19931;-25
2023/07/01 04:05:12;;;;;;;;;;;23.00;99.90;;;;;;4590730;19;19923;-24
2023/07/01 04:06:45;;;;;;;;;;;23.00;99.90;;;;;;4591199;19;20436;-24
2023/07/01 04:08:16;;;;;;;;;;;23.10;99.90;;;;;;4592050;19;19949;-24
2023/07/01 04:09:49;;;;;;;;;;;23.30;99.90;;;;;;4590548;19;19923;-24
2023/07/01 04:11:21;;;;;;;;;;;23.40;99.90;;;;;;4589169;19;19922;-30
2023/07/01 04:12:52;;;;;;;;;;;23.50;99.90;;;;;;4591871;19;19937;-26
2023/07/01 04:14:24;;;;;;;;;;;23.60;99.90;;;;;;4587335;19;19930;-24
2023/07/01 04:15:55;;;;;;;;;;;23.70;99.90;;;;;;4591442;19;19933;-24
2023/07/01 04:17:27;;;;;;;;;;;23.70;99.90;;;;;;4592288;19;19915;-24
2023/07/01 04:18:59;;;;;;;;;;;23.70;99.90;;;;;;4588170;19;19915;-24
2023/07/01 04:20:31;;;;;;;;;;;23.70;99.90;;;;;;4592478;19;19914;-23
2023/07/01 04:22:02;;;;;;;;;;;23.70;99.90;;;;;;4591148;19;19937;-24
2023/07/01 04:23:33;;;;;;;;;;;23.70;99.90;;;;;;4593610;19;20278;-24
2023/07/01 04:25:06;;;;;;;;;;;23.60;99.90;;;;;;4592076;19;19923;-23
2023/07/01 04:26:38;;;;;;;;;;;23.60;99.90;;;;;;4591618;19;20274;-25
2023/07/01 04:28:09;;;;;;;;;;;23.60;99.90;;;;;;4590875;19;19918;-24
2023/07/01 04:29:40;;;;;;;;;;;23.50;99.90;;;;;;4593259;19;19922;-24
2023/07/01 04:31:11;;;;;;;;;;;23.50;99.90;;;;;;4588848;19;20687;-30
2023/07/01 04:32:42;;;;;;;;;;;23.50;99.90;;;;;;4593138;19;19914;-24
2023/07/01 04:34:13;;;;;;;;;;;23.40;99.90;;;;;;4591428;19;19943;-24
2023/07/01 04:35:44;;;;;;;;;;;23.40;99.90;;;;;;4591952;19;19915;-26
2023/07/01 04:37:15;;;;;;;;;;;23.30;99.90;;;;;;4592075;19;19926;-26
2023/07/01 04:38:46;;;;;;;;;;;23.30;99.90;;;;;;4589586;19;19923;-24
2023/07/01 04:40:17;;;;;;;;;;;23.30;99.90;;;;;;4592473;19;19929;-24
2023/07/01 04:41:48;;;;;;;;;;;23.30;99.90;;;;;;4591000;19;19922;-24
2023/07/01 04:43:20;;;;;;;;;;;23.20;99.90;;;;;;4587940;19;20280;-25
2023/07/01 04:44:53;;;;;;;;;;;23.20;99.90;;;;;;4588325;19;20276;-28
2023/07/01 04:46:24;;;;;;;;;;;23.10;99.90;;;;;;4593104;19;19922;-24
2023/07/01 04:47:56;;;;;;;;;;;23.10;99.90;;;;;;4592699;19;19918;-24
2023/07/01 04:49:26;;;;;;;;;;;23.10;99.90;;;;;;4594648;19;20434;-24
2023/07/01 04:50:57;;;;;;;;;;;23.10;99.90;;;;;;4596093;19;19951;-24
2023/07/01 04:52:29;;;;;;;;;;;23.00;99.90;;;;;;4594821;19;19931;-24
2023/07/01 04:54:01;;;;;;;;;;;23.00;99.90;;;;;;4596360;19;20336;-28
2023/07/01 04:55:32;;;;;;;;;;;22.90;99.90;;;;;;4594177;19;19922;-24
2023/07/01 04:57:03;;;;;;;;;;;22.90;99.90;;;;;;4595366;19;20245;-24
2023/07/01 04:58:35;;;;;;;;;;;22.90;99.90;;;;;;4593489;19;19923;-26
2023/07/01 05:00:09;;;;;;;;;;;22.90;99.90;;;;;;4595976;19;19914;-24
2023/07/01 05:01:40;;;;;;;;;;;22.90;99.90;;;;;;4595099;19;20639;-24
2023/07/01 05:03:11;;;;;;;;;;;22.80;99.90;;;;;;4594895;19;19911;-27
2023/07/01 05:04:42;;;;;;;;;;;22.80;99.90;;;;;;4594499;19;19911;-24
2023/07/01 05:06:13;;;;;;;;;;;22.80;99.90;;;;;;4594141;19;20360;-27
2023/07/01 05:07:45;;;;;;;;;;;22.80;99.90;;;;;;4593107;19;19926;-24
2023/07/01 05:09:16;;;;;;;;;;;22.70;99.90;;;;;;4596031;19;19932;-24
2023/07/01 05:10:47;;;;;;;;;;;22.70;99.90;;;;;;4593609;19;20265;-24
2023/07/01 05:12:18;;;;;;;;;;;22.70;99.90;;;;;;4595399;19;19929;-27
2023/07/01 05:13:49;;;;;;;;;;;22.70;99.90;;;;;;4595524;19;19926;-23
2023/07/01 05:15:20;;;;;;;;;;;22.70;99.90;;;;;;4594744;19;20332;-29
2023/07/01 05:16:51;;;;;;;;;;;22.70;99.90;;;;;;4593804;19;19935;-25
2023/07/01 05:18:22;;;;;;;;;;;22.60;99.90;;;;;;4594608;19;19919;-24
2023/07/01 05:19:54;;;;;;;;;;;22.60;99.90;;;;;;4592612;19;19914;-24
2023/07/01 05:21:24;;;;;;;;;;;22.60;99.90;;;;;;4594444;19;19925;-24
2023/07/01 05:22:55;;;;;;;;;;;22.60;99.90;;;;;;4594691;19;19970;-24
2023/07/01 05:24:27;;;;;;;;;;;22.60;99.90;;;;;;4593917;19;20262;-24
2023/07/01 05:25:58;;;;;;;;;;;22.60;99.90;;;;;;4591930;19;19929;-22
2023/07/01 05:27:29;;;;;;;;;;;22.60;99.90;;;;;;4592598;19;19915;-27
2023/07/01 05:29:01;;;;;;;;;;;22.60;99.90;;;;;;4594726;19;20248;-25
2023/07/01 05:30:32;;;;;;;;;;;22.50;99.90;;;;;;4592650;19;19931;-29
2023/07/01 05:32:03;;;;;;;;;;;22.50;99.90;;;;;;4594998;19;20337;-24
2023/07/01 05:33:35;;;;;;;;;;;22.50;99.90;;;;;;4593230;19;19941;-24
2023/07/01 05:35:06;;;;;;;;;;;22.50;99.90;;;;;;4593799;19;19911;-28
2023/07/01 05:36:37;;;;;;;;;;;22.50;99.90;;;;;;4594127;19;19933;-24
2023/07/01 05:38:09;;;;;;;;;;;22.50;99.90;;;;;;4594445;19;19918;-24
2023/07/01 05:39:41;;;;;;;;;;;22.50;99.90;;;;;;4592936;19;19923;-29
2023/07/01 05:41:12;;;;;;;;;;;22.50;99.90;;;;;;4593221;19;20854;-24
2023/07/01 05:42:45;;;;;;;;;;;22.50;99.90;;;;;;4594178;19;19922;-24
2023/07/01 05:44:16;;;;;;;;;;;22.50;99.90;;;;;;4594615;19;19923;-24
2023/07/01 05:45:48;;;;;;;;;;;22.50;99.90;;;;;;4593872;19;19925;-24
2023/07/01 05:47:19;;;;;;;;;;;22.50;99.90;;;;;;4591414;19;19911;-24
2023/07/01 05:48:50;;;;;;;;;;;22.50;99.90;;;;;;4593902;19;19914;-28
2023/07/01 05:50:23;;;;;;;;;;;22.50;99.90;;;;;;4592934;19;19950;-31
2023/07/01 05:51:55;;;;;;;;;;;22.50;99.90;;;;;;4594105;19;19926;-26
2023/07/01 05:53:26;;;;;;;;;;;22.50;99.90;;;;;;4593806;19;20256;-29
2023/07/01 05:54:57;;;;;;;;;;;22.50;99.90;;;;;;4592714;19;19995;-23
2023/07/01 05:56:32;;;;;;;;;;;22.50;99.90;;;;;;4592466;19;19948;-28
2023/07/01 05:58:02;;;;;;;;;;;22.50;99.90;;;;;;4590237;19;19922;-28
2023/07/01 05:59:33;;;;;;;;;;;22.50;99.90;;;;;;4593202;19;19939;-28
2023/07/01 06:01:05;;;;;;;;;;;22.50;99.90;;;;;;4591937;19;19926;-24
2023/07/01 06:02:38;;;;;;;;;;;22.50;99.90;;;;;;4594182;19;19936;-24
2023/07/01 06:04:09;;;;;;;;;;;22.40;99.90;;;;;;4592822;19;19922;-24
2023/07/01 06:05:40;;;;;;;;;;;22.40;99.90;;;;;;4594259;19;19923;-29
2023/07/01 06:07:11;;;;;;;;;;;22.50;99.90;;;;;;4593192;19;19952;-26
2023/07/01 06:08:42;;;;;;;;;;;22.40;99.90;;;;;;4593024;19;20372;-24
2023/07/01 06:10:14;;;;;;;;;;;22.40;99.90;;;;;;4595641;19;19918;-24
2023/07/01 06:11:45;;;;;;;;;;;22.40;99.90;;;;;;4594836;19;19970;-25
2023/07/01 06:13:16;;;;;;;;;;;22.40;99.90;;;;;;4593397;19;19936;-24
2023/07/01 06:14:48;;;;;;;;;;;22.40;99.90;;;;;;4593442;19;19991;-25
2023/07/01 06:16:19;;;;;;;;;;;22.50;99.90;;;;;;4594296;19;19918;-24
2023/07/01 06:17:50;;;;;;;;;;;22.60;99.90;;;;;;4594790;19;20253;-25
2023/07/01 06:19:22;;;;;;;;;;;22.70;99.90;;;;;;4595501;19;19929;-25
2023/07/01 06:20:53;;;;;;;;;;;22.80;99.90;;;;;;4592924;19;19948;-24
2023/07/01 06:22:24;;;;;;;;;;;22.90;99.90;;;;;;4595246;19;19923;-26
2023/07/01 06:23:56;;;;;;;;;;;23.00;99.90;;;;;;4595859;19;20058;-24
2023/07/01 06:25:27;;;;;;;;;;;23.10;99.90;;;;;;4595106;19;19919;-24
2023/07/01 06:26:58;;;;;;;;;;;23.10;99.90;;;;;;4592171;19;19944;-24
2023/07/01 06:28:29;;;;;;;;;;;23.30;99.90;;;;;;4593457;19;19921;-28
2023/07/01 06:30:00;;;;;;;;;;;23.30;99.90;;;;;;4593511;19;19918;-24
2023/07/01 06:31:31;;;;;;;;;;;23.30;99.90;;;;;;4593589;19;19922;-22
2023/07/01 06:33:02;;;;;;;;;;;23.40;99.90;;;;;;4593836;19;19922;-26
2023/07/01 06:34:33;;;;;;;;;;;23.40;99.90;;;;;;4593891;19;19925;-25
2023/07/01 06:36:05;;;;;;;;;;;23.50;99.90;;;;;;4591968;19;19918;-26
2023/07/01 06:37:36;;;;;;;;;;;23.50;99.90;;;;;;4593223;19;19919;-27
2023/07/01 06:39:07;;;;;;;;;;;23.60;99.90;;;;;;4592264;19;19922;-25
2023/07/01 06:40:38;;;;;;;;;;;23.60;99.90;;;;;;4591742;19;20566;-24
2023/07/01 06:42:12;;;;;;;;;;;23.70;99.90;;;;;;4592063;19;19919;-25
2023/07/01 06:43:43;;;;;;;;;;;23.80;99.90;;;;;;4593427;19;20244;-25
2023/07/01 06:45:14;;;;;;;;;;;23.90;99.90;;;;;;4595481;19;19919;-25
2023/07/01 06:46:46;;;;;;;;;;;23.90;99.90;;;;;;4593600;19;19918;-25
2023/07/01 06:48:17;;;;;;;;;;;23.90;99.90;;;;;;4594638;19;19918;-25
2023/07/01 06:49:48;;;;;;;;;;;24.00;99.90;;;;;;4595319;19;20329;-26
2023/07/01 06:51:20;;;;;;;;;;;24.00;99.90;;;;;;4595432;19;19922;-25
2023/07/01 06:52:51;;;;;;;;;;;24.10;99.90;;;;;;4594368;19;19970;-25
2023/07/01 06:54:22;;;;;;;;;;;24.10;99.90;;;;;;4594935;19;19934;-24
2023/07/01 06:55:53;;;;;;;;;;;24.10;99.90;;;;;;4593118;19;20352;-25
2023/07/01 06:57:24;;;;;;;;;;;24.20;99.90;;;;;;4592540;19;19927;-28
2023/07/01 06:58:55;;;;;;;;;;;24.10;99.90;;;;;;4591987;19;20325;-25
2023/07/01 07:00:29;;;;;;;;;;;24.10;99.90;;;;;;4592366;19;19919;-26
2023/07/01 07:02:00;;;;;;;;;;;24.10;99.90;;;;;;4593313;19;20294;-24
2023/07/01 07:03:32;;;;;;;;;;;24.10;99.90;;;;;;4593374;19;19919;-24
2023/07/01 07:05:04;;;;;;;;;;;24.10;99.90;;;;;;4592532;19;19919;-24
2023/07/01 07:06:35;;;;;;;;;;;24.10;99.90;;;;;;4591156;19;20333;-24
2023/07/01 07:08:06;;;;;;;;;;;24.00;99.90;;;;;;4589321;19;19944;-26
2023/07/01 07:09:37;;;;;;;;;;;23.90;99.90;;;;;;4590922;19;20397;-24
2023/07/01 07:11:08;;;;;;;;;;;23.90;99.90;;;;;;4591052;19;19911;-25
2023/07/01 07:12:39;;;;;;;;;;;23.90;99.90;;;;;;4588470;19;19939;-24
2023/07/01 07:14:10;;;;;;;;;;;23.80;99.90;;;;;;4590842;19;19942;-24
2023/07/01 07:15:41;;;;;;;;;;;23.80;99.90;;;;;;4590532;19;19922;-25
2023/07/01 07:17:13;;;;;;;;;;;23.70;99.90;;;;;;4591886;19;19910;-24
2023/07/01 07:18:44;;;;;;;;;;;23.70;99.90;;;;;;4591207;19;19936;-27
2023/07/01 07:20:15;;;;;;;;;;;23.70;99.90;;;;;;4591910;19;20324;-24
2023/07/01 07:21:48;;;;;;;;;;;23.70;99.90;;;;;;4591755;19;19926;-28
2023/07/01 07:23:19;;;;;;;;;;;23.60;99.90;;;;;;4592466;19;19919;-24
2023/07/01 07:24:51;;;;;;;;;;;23.60;99.90;;;;;;4591178;19;19915;-24
2023/07/01 07:26:22;;;;;;;;;;;23.60;99.90;;;;;;4591942;19;19911;-28
2023/07/01 07:27:53;;;;;;;;;;;23.50;99.90;;;;;;4590442;19;19926;-24
2023/07/01 07:29:24;;;;;;;;;;;23.50;99.90;;;;;;4592688;19;19931;-28
2023/07/01 07:30:55;;;;;;;;;;;23.50;99.90;;;;;;4591107;19;19931;-24
2023/07/01 07:32:27;;;;;;;;;;;23.40;99.90;;;;;;4590908;19;19922;-25
2023/07/01 07:33:58;;;;;;;;;;;23.40;99.90;;;;;;4590879;19;19939;-24
2023/07/01 07:35:29;;;;;;;;;;;23.30;99.90;;;;;;4592205;19;20316;-29
2023/07/01 07:37:00;;;;;;;;;;;23.40;99.90;;;;;;4591642;19;19918;-26
2023/07/01 07:38:34;;;;;;;;;;;23.30;99.90;;;;;;4590342;19;19918;-26
2023/07/01 07:40:07;;;;;;;;;;;23.30;99.90;;;;;;4591456;19;19931;-24
2023/07/01 07:41:39;;;;;;;;;;;23.40;99.90;;;;;;4592855;19;19911;-27
2023/07/01 07:43:10;;;;;;;;;;;23.30;99.90;;;;;;4590675;19;19918;-25
2023/07/01 07:44:42;;;;;;;;;;;23.30;99.90;;;;;;4591368;19;20245;-27
2023/07/01 07:46:13;;;;;;;;;;;23.30;99.90;;;;;;4591873;19;20371;-26
2023/07/01 07:47:44;;;;;;;;;;;23.30;99.90;;;;;;4592196;19;19923;-24
2023/07/01 07:49:16;;;;;;;;;;;23.30;99.90;;;;;;4589365;19;20357;-24
2023/07/01 07:50:47;;;;;;;;;;;23.30;99.90;;;;;;4591233;19;20333;-23
2023/07/01 07:52:18;;;;;;;;;;;23.30;99.90;;;;;;4591469;19;19918;-24
2023/07/01 07:53:49;;;;;;;;;;;23.30;99.90;;;;;;4589511;19;19925;-24
2023/07/01 07:55:21;;;;;;;;;;;23.30;99.90;;;;;;4589809;19;19982;-29
2023/07/01 07:56:58;;;;;;;;;;;23.20;99.90;;;;;;4590414;19;19922;-24
2023/07/01 07:58:29;;;;;;;;;;;23.20;99.90;;;;;;4590249;19;19919;-24
2023/07/01 08:00:00;;;;;;;;;;;23.20;99.90;;;;;;4591560;19;20224;-27
2023/07/01 08:01:31;;;;;;;;;;;23.20;99.90;;;;;;4591559;19;19918;-24
2023/07/01 08:03:02;;;;;;;;;;;23.20;99.90;;;;;;4592008;19;19921;-27
2023/07/01 08:04:34;;;;;;;;;;;23.20;99.90;;;;;;4592328;19;19919;-30
2023/07/01 08:06:05;;;;;;;;;;;23.20;99.90;;;;;;4590417;19;19926;-24
2023/07/01 08:07:37;;;;;;;;;;;23.20;99.90;;;;;;4591141;19;19907;-24
2023/07/01 08:09:08;;;;;;;;;;;23.20;99.90;;;;;;4591791;19;20272;-24
2023/07/01 08:10:44;;;;;;;;;;;23.20;99.90;;;;;;4590211;19;19919;-27
2023/07/01 08:12:14;;;;;;;;;;;23.20;99.90;;;;;;4590936;19;19933;-30
2023/07/01 08:13:46;;;;;;;;;;;23.10;99.90;;;;;;4591488;19;19933;-24
2023/07/01 08:15:17;;;;;;;;;;;23.10;99.90;;;;;;4591594;19;19970;-24
2023/07/01 08:16:48;;;;;;;;;;;23.10;99.90;;;;;;4591427;19;20395;-23
2023/07/01 08:18:19;;;;;;;;;;;23.10;99.90;;;;;;4589838;19;20250;-23
2023/07/01 08:19:50;;;;;;;;;;;23.10;99.90;;;;;;4591512;19;19918;-24
2023/07/01 08:21:22;;;;;;;;;;;23.10;99.90;;;;;;4590354;19;19919;-27
2023/07/01 08:22:53;;;;;;;;;;;23.10;99.90;;;;;;4591386;19;19918;-24
2023/07/01 08:24:25;;;;;;;;;;;23.10;99.90;;;;;;4590034;19;19911;-29
2023/07/01 08:25:56;;;;;;;;;;;23.10;99.90;;;;;;4589229;19;19971;-28
2023/07/01 08:27:27;;;;;;;;;;;23.10;99.90;;;;;;4588777;19;19942;-24
2023/07/01 08:28:58;;;;;;;;;;;23.10;99.90;;;;;;4590846;19;20321;-24
2023/07/01 08:30:30;;;;;;;;;;;23.10;99.90;;;;;;4591224;19;19926;-23
2023/07/01 08:32:01;;;;;;;;;;;23.10;99.90;;;;;;4590856;19;19934;-25
2023/07/01 08:33:32;;;;;;;;;;;23.10;99.90;;;;;;4591502;19;20325;-29
2023/07/01 08:35:03;;;;;;;;;;;23.10;99.90;;;;;;4590882;19;19926;-24
2023/07/01 08:36:35;;;;;;;;;;;23.10;99.90;;;;;;4591156;19;19918;-24
2023/07/01 08:38:05;;;;;;;;;;;23.10;99.90;;;;;;4590090;19;19925;-28
2023/07/01 08:39:36;;;;;;;;;;;23.10;99.90;;;;;;4589799;19;19915;-24
2023/07/01 08:41:09;;;;;;;;;;;23.10;99.90;;;;;;4589841;19;19941;-24
2023/07/01 08:42:43;;;;;;;;;;;23.10;99.90;;;;;;4590356;19;19915;-28
2023/07/01 08:44:14;;;;;;;;;;;23.10;99.90;;;;;;4591493;19;19915;-28
2023/07/01 08:45:46;;;;;;;;;;;23.10;99.90;;;;;;4591089;19;19934;-28
2023/07/01 08:47:17;;;;;;;;;;;23.10;99.90;;;;;;4589623;19;20350;-30
2023/07/01 08:48:48;;;;;;;;;;;23.10;99.90;;;;;;4590477;19;19946;-24
2023/07/01 08:50:19;;;;;;;;;;;23.10;99.90;;;;;;4590868;19;19941;-24
2023/07/01 08:52:11;;;;;;;;;;;23.10;99.90;;;;;;4590249;19;19910;-24
2023/07/01 08:53:42;;;;;;;;;;;23.10;99.90;;;;;;4590569;19;19915;-25
2023/07/01 08:55:14;;;;;;;;;;;23.10;99.90;;;;;;4590729;19;19915;-24
2023/07/01 08:56:48;;;;;;;;;;;23.10;99.90;;;;;;4591350;19;19922;-24
2023/07/01 08:58:19;;;;;;;;;;;23.10;99.90;;;;;;4589165;19;19953;-29
2023/07/01 08:59:50;;;;;;;;;;;23.10;99.90;;;;;;4589027;19;19914;-24
2023/07/01 09:01:23;;;;;;;;;;;23.10;99.90;;;;;;4589631;19;20328;-29